createdAt,value
2018-09-26T00:00:38.376Z,7.69
2018-09-26T00:03:12.323Z,7.79
2018-09-26T00:05:40.914Z,7.84
2018-09-26T00:08:09.178Z,7.80
2018-09-26T00:10:37.381Z,7.70
2018-09-26T00:13:06.136Z,7.67
2018-09-26T00:15:34.397Z,7.67
2018-09-26T00:18:02.649Z,7.58
2018-09-26T00:20:31.237Z,7.51
2018-09-26T00:22:59.879Z,7.41
2018-09-26T00:25:28.134Z,7.30
2018-09-26T00:27:56.708Z,7.16
2018-09-26T00:30:25.916Z,7.25
2018-09-26T00:32:54.294Z,7.36
2018-09-26T00:35:22.700Z,7.20
2018-09-26T00:37:51.406Z,7.21
2018-09-26T00:40:19.835Z,7.31
2018-09-26T00:42:48.736Z,7.26
2018-09-26T00:45:17.285Z,7.23
2018-09-26T00:47:45.602Z,7.32
2018-09-26T00:50:14.379Z,7.14
2018-09-26T00:52:43.971Z,7.03
2018-09-26T00:55:12.233Z,6.97
2018-09-26T00:57:40.763Z,7.06
2018-09-26T01:00:09.298Z,7.15
2018-09-26T01:02:38.427Z,7.16
2018-09-26T01:05:07.244Z,7.09
2018-09-26T01:07:35.619Z,7.08
2018-09-26T01:10:03.960Z,7.08
2018-09-26T01:12:32.237Z,6.97
2018-09-26T01:15:00.515Z,6.92
2018-09-26T01:17:28.835Z,6.90
2018-09-26T01:19:57.140Z,6.95
2018-09-26T01:22:26.238Z,6.97
2018-09-26T01:24:55.267Z,6.94
2018-09-26T01:27:23.538Z,6.79
2018-09-26T01:29:52.532Z,6.73
2018-09-26T01:32:21.702Z,6.74
2018-09-26T01:34:50.283Z,6.83
2018-09-26T01:37:18.794Z,6.72
2018-09-26T01:39:47.340Z,6.62
2018-09-26T01:42:16.536Z,6.53
2018-09-26T01:44:45.033Z,6.50
2018-09-26T01:47:13.308Z,6.47
2018-09-26T01:49:41.562Z,6.66
2018-09-26T01:52:09.891Z,6.58
2018-09-26T01:54:38.785Z,6.49
2018-09-26T01:57:07.308Z,6.53
2018-09-26T01:59:36.048Z,6.45
2018-09-26T02:02:04.314Z,6.58
2018-09-26T02:04:32.686Z,6.56
2018-09-26T02:07:01.216Z,6.58
2018-09-26T02:09:29.840Z,6.40
2018-09-26T02:11:58.125Z,6.14
2018-09-26T02:14:26.471Z,6.03
2018-09-26T02:16:55.067Z,5.94
2018-09-26T02:19:23.365Z,5.88
2018-09-26T02:21:51.581Z,5.89
2018-09-26T02:24:19.782Z,6.01
2018-09-26T02:26:48.271Z,5.99
2018-09-26T02:29:16.840Z,5.93
2018-09-26T02:31:45.205Z,5.93
2018-09-26T02:34:13.570Z,5.92
2018-09-26T02:36:42.125Z,5.91
2018-09-26T02:39:10.365Z,5.89
2018-09-26T02:41:38.968Z,5.90
2018-09-26T02:44:07.635Z,5.84
2018-09-26T02:46:36.240Z,5.88
2018-09-26T02:49:06.020Z,5.96
2018-09-26T02:51:37.780Z,6.02
2018-09-26T02:54:07.138Z,6.04
2018-09-26T02:56:35.861Z,6.02
2018-09-26T02:59:04.165Z,5.95
2018-09-26T03:01:32.684Z,5.78
2018-09-26T03:04:00.955Z,5.76
2018-09-26T03:06:29.313Z,5.84
2018-09-26T03:08:57.582Z,5.89
2018-09-26T03:11:26.368Z,5.89
2018-09-26T03:13:54.612Z,5.84
2018-09-26T03:16:22.909Z,5.91
2018-09-26T03:18:51.393Z,5.97
2018-09-26T03:21:19.854Z,5.89
2018-09-26T03:23:48.310Z,5.88
2018-09-26T03:26:16.603Z,5.86
2018-09-26T03:28:44.852Z,5.79
2018-09-26T03:31:13.410Z,5.69
2018-09-26T03:33:41.700Z,5.72
2018-09-26T03:36:09.983Z,5.72
2018-09-26T03:38:38.615Z,5.82
2018-09-26T03:41:07.220Z,5.89
2018-09-26T03:43:35.590Z,5.91
2018-09-26T03:46:03.864Z,6.04
2018-09-26T03:48:32.178Z,5.94
2018-09-26T03:51:00.399Z,5.95
2018-09-26T03:53:28.625Z,5.90
2018-09-26T03:55:57.218Z,5.92
2018-09-26T03:58:25.452Z,5.88
2018-09-26T04:00:53.713Z,5.88
2018-09-26T04:03:22.450Z,5.79
2018-09-26T04:05:51.044Z,5.71
2018-09-26T04:08:19.660Z,5.75
2018-09-26T04:10:48.297Z,5.81
2018-09-26T04:13:16.741Z,5.84
2018-09-26T04:15:51.591Z,5.81
2018-09-26T04:18:21.384Z,5.58
2018-09-26T04:20:50.666Z,5.48
2018-09-26T04:23:19.757Z,5.43
2018-09-26T04:25:48.235Z,5.33
2018-09-26T04:28:16.762Z,5.29
2018-09-26T04:30:45.200Z,5.18
2018-09-26T04:33:13.912Z,5.17
2018-09-26T04:35:43.258Z,5.15
2018-09-26T04:38:11.559Z,5.10
2018-09-26T04:40:40.475Z,5.12
2018-09-26T04:43:09.749Z,5.11
2018-09-26T04:45:38.236Z,5.07
2018-09-26T04:48:07.214Z,5.13
2018-09-26T04:50:35.511Z,5.12
2018-09-26T04:53:04.240Z,5.22
2018-09-26T04:55:32.904Z,5.20
2018-09-26T04:58:01.946Z,5.16
2018-09-26T05:00:30.393Z,5.06
2018-09-26T05:02:59.225Z,5.02
2018-09-26T05:05:28.634Z,5.05
2018-09-26T05:07:57.440Z,5.02
2018-09-26T05:10:26.000Z,5.09
2018-09-26T05:12:54.382Z,5.01
2018-09-26T05:15:22.922Z,5.10
2018-09-26T05:17:51.605Z,5.14
2018-09-26T05:20:20.036Z,5.09
2018-09-26T05:22:48.491Z,5.10
2018-09-26T05:25:17.154Z,5.23
2018-09-26T05:27:46.115Z,5.35
2018-09-26T05:30:14.528Z,5.49
2018-09-26T05:32:43.940Z,5.58
2018-09-26T05:35:12.859Z,5.73
2018-09-26T05:37:41.214Z,5.86
2018-09-26T05:40:09.573Z,5.93
2018-09-26T05:42:37.897Z,5.99
2018-09-26T05:45:06.238Z,6.13
2018-09-26T05:47:35.096Z,6.35
2018-09-26T05:50:03.576Z,6.42
2018-09-26T05:52:32.031Z,6.52
2018-09-26T05:55:01.474Z,6.51
2018-09-26T05:57:30.156Z,6.47
2018-09-26T05:59:59.384Z,6.49
2018-09-26T06:02:28.677Z,6.49
2018-09-26T06:04:57.067Z,6.39
2018-09-26T06:07:26.117Z,6.40
2018-09-26T06:09:54.469Z,6.47
2018-09-26T06:12:23.044Z,6.65
2018-09-26T06:14:51.677Z,6.78
2018-09-26T06:17:21.100Z,6.85
2018-09-26T06:19:49.676Z,7.18
2018-09-26T06:22:18.523Z,7.35
2018-09-26T06:24:46.938Z,7.53
2018-09-26T06:27:16.267Z,7.55
2018-09-26T06:29:44.996Z,7.52
2018-09-26T06:32:13.730Z,7.52
2018-09-26T06:34:43.128Z,7.61
2018-09-26T06:37:11.941Z,7.76
2018-09-26T06:39:40.596Z,7.71
2018-09-26T06:42:08.936Z,7.92
2018-09-26T06:44:37.163Z,7.81
2018-09-26T06:47:05.976Z,7.87
2018-09-26T06:49:35.100Z,7.87
2018-09-26T06:52:03.370Z,8.03
2018-09-26T06:54:31.661Z,8.32
2018-09-26T06:57:00.043Z,8.23
2018-09-26T06:59:29.258Z,8.45
2018-09-26T07:01:57.599Z,8.59
2018-09-26T07:04:26.597Z,8.63
2018-09-26T07:06:57.704Z,8.77
2018-09-26T07:09:27.546Z,8.99
2018-09-26T07:11:56.054Z,8.92
2018-09-26T07:14:24.636Z,9.21
2018-09-26T07:16:53.473Z,9.22
2018-09-26T07:19:22.969Z,9.23
2018-09-26T07:21:51.481Z,9.53
2018-09-26T07:24:20.075Z,9.49
2018-09-26T07:26:49.317Z,9.61
2018-09-26T07:29:17.805Z,9.70
2018-09-26T07:31:46.187Z,9.49
2018-09-26T07:34:14.851Z,9.39
2018-09-26T07:36:43.885Z,9.76
2018-09-26T07:39:12.831Z,10.09
2018-09-26T07:41:41.237Z,10.33
2018-09-26T07:44:10.178Z,10.43
2018-09-26T07:46:39.463Z,10.51
2018-09-26T07:49:07.891Z,10.58
2018-09-26T07:51:36.552Z,10.88
2018-09-26T07:54:04.922Z,11.11
2018-09-26T07:56:33.355Z,11.25
2018-09-26T07:59:01.827Z,11.49
2018-09-26T08:01:30.939Z,11.59
2018-09-26T08:03:59.695Z,11.87
2018-09-26T08:06:27.970Z,11.74
2018-09-26T08:08:56.325Z,11.85
2018-09-26T08:11:26.567Z,12.45
2018-09-26T08:13:55.078Z,12.57
2018-09-26T08:16:24.465Z,12.36
2018-09-26T08:18:52.941Z,12.65
2018-09-26T08:21:22.415Z,12.52
2018-09-26T08:23:52.457Z,12.59
2018-09-26T08:26:21.800Z,13.37
2018-09-26T08:28:50.660Z,13.34
2018-09-26T08:31:19.921Z,13.06
2018-09-26T08:33:48.480Z,13.90
2018-09-26T08:36:17.330Z,14.36
2018-09-26T08:38:46.081Z,14.33
2018-09-26T08:41:14.429Z,14.50
2018-09-26T08:43:43.757Z,14.72
2018-09-26T08:46:12.346Z,14.73
2018-09-26T08:48:41.278Z,15.01
2018-09-26T08:51:10.648Z,14.92
2018-09-26T08:53:40.951Z,15.30
2018-09-26T08:56:11.132Z,15.23
2018-09-26T08:58:39.783Z,14.90
2018-09-26T09:01:14.061Z,15.12
2018-09-26T09:03:42.432Z,14.55
2018-09-26T09:06:11.193Z,14.92
2018-09-26T09:08:41.881Z,14.75
2018-09-26T09:11:10.558Z,14.81
2018-09-26T09:13:38.932Z,14.96
2018-09-26T09:16:08.952Z,15.17
2018-09-26T09:18:37.904Z,15.49
2018-09-26T09:21:08.373Z,15.56
2018-09-26T09:23:38.361Z,14.87
2018-09-26T09:26:08.821Z,14.65
2018-09-26T09:28:40.655Z,14.92
2018-09-26T09:31:10.189Z,15.06
2018-09-26T09:46:52.909Z,16.06
2018-09-26T09:49:21.539Z,16.19
2018-09-26T09:51:50.003Z,16.37
2018-09-26T09:54:20.226Z,16.11
2018-09-26T09:56:49.894Z,16.53
2018-09-26T09:59:18.832Z,16.71
2018-09-26T10:01:47.277Z,16.64
2018-09-26T10:04:15.842Z,17.04
2018-09-26T10:06:45.038Z,17.30
2018-09-26T10:09:14.736Z,17.23
2018-09-26T10:11:44.161Z,17.55
2018-09-26T10:14:14.767Z,17.85
2018-09-26T10:16:43.325Z,17.38
2018-09-26T10:19:11.955Z,17.32
2018-09-26T10:21:40.909Z,17.08
2018-09-26T10:24:09.965Z,17.27
2018-09-26T10:26:38.558Z,17.08
2018-09-26T10:29:08.402Z,16.77
2018-09-26T10:31:37.515Z,17.41
2018-09-26T10:34:08.689Z,17.69
2018-09-26T10:36:39.366Z,17.79
2018-09-26T10:39:09.746Z,18.01
2018-09-26T10:41:38.402Z,17.93
2018-09-26T10:44:10.980Z,17.98
2018-09-26T10:46:39.699Z,17.97
2018-09-26T10:49:08.530Z,18.29
2018-09-26T10:51:37.427Z,18.29
2018-09-26T10:54:07.157Z,18.73
2018-09-26T10:56:37.046Z,19.38
2018-09-26T10:59:06.192Z,19.45
2018-09-26T11:01:35.486Z,19.73
2018-09-26T11:04:03.961Z,20.05
2018-09-26T11:06:33.556Z,20.18
2018-09-26T11:09:02.103Z,20.75
2018-09-26T11:11:33.489Z,20.26
2018-09-26T11:14:04.366Z,20.28
2018-09-26T11:16:32.780Z,19.58
2018-09-26T11:19:01.339Z,19.82
2018-09-26T11:21:29.852Z,20.41
2018-09-26T11:23:58.257Z,20.04
2018-09-26T11:26:27.928Z,20.62
2018-09-26T11:28:56.952Z,20.38
2018-09-26T11:31:25.319Z,20.87
2018-09-26T11:33:54.405Z,19.79
2018-09-26T11:36:22.925Z,20.17
2018-09-26T11:38:53.513Z,20.52
2018-09-26T11:41:22.635Z,20.67
2018-09-26T11:43:51.216Z,20.89
2018-09-26T11:46:19.934Z,20.66
2018-09-26T11:48:48.746Z,21.31
2018-09-26T11:51:17.553Z,21.09
2018-09-26T11:53:46.989Z,21.40
2018-09-26T11:56:16.484Z,21.81
2018-09-26T11:58:45.057Z,21.85
2018-09-26T12:01:13.992Z,21.29
2018-09-26T12:03:49.000Z,21.64
2018-09-26T12:06:17.869Z,22.10
2018-09-26T12:08:47.271Z,22.22
2018-09-26T12:11:16.065Z,21.89
2018-09-26T12:13:44.639Z,22.43
2018-09-26T12:16:14.145Z,22.33
2018-09-26T12:18:43.033Z,22.28
2018-09-26T12:21:12.336Z,22.32
2018-09-26T12:23:41.739Z,22.42
2018-09-26T12:26:11.639Z,22.35
2018-09-26T12:28:40.619Z,22.55
2018-09-26T12:31:10.097Z,22.29
2018-09-26T12:33:38.941Z,22.46
2018-09-26T12:36:07.386Z,22.88
2018-09-26T12:38:35.662Z,22.56
2018-09-26T12:41:05.149Z,22.67
2018-09-26T12:43:33.511Z,22.56
2018-09-26T12:46:02.263Z,23.22
2018-09-26T12:48:31.443Z,23.31
2018-09-26T12:50:59.775Z,23.26
2018-09-26T12:53:29.200Z,23.40
2018-09-26T12:55:57.887Z,23.13
2018-09-26T12:58:26.159Z,23.87
2018-09-26T13:00:54.413Z,23.93
2018-09-26T13:03:22.951Z,24.09
2018-09-26T13:05:51.577Z,24.61
2018-09-26T13:08:20.414Z,25.07
2018-09-26T13:10:49.033Z,25.57
2018-09-26T13:13:17.459Z,26.90
2018-09-26T13:15:45.980Z,28.31
2018-09-26T13:18:14.563Z,29.68
2018-09-26T13:20:43.090Z,30.00
2018-09-26T13:23:11.660Z,30.05
2018-09-26T13:25:40.086Z,30.98
2018-09-26T13:28:08.630Z,31.51
2018-09-26T13:30:37.211Z,31.65
2018-09-26T13:33:05.801Z,31.14
2018-09-26T13:35:34.480Z,31.76
2018-09-26T13:38:02.717Z,30.31
2018-09-26T13:40:31.039Z,29.61
2018-09-26T13:42:59.307Z,31.14
2018-09-26T13:45:27.548Z,33.04
2018-09-26T13:47:55.804Z,33.45
2018-09-26T13:50:24.511Z,33.85
2018-09-26T13:52:52.871Z,32.34
2018-09-26T13:55:21.319Z,33.64
2018-09-26T13:57:49.552Z,33.99
2018-09-26T14:00:17.939Z,34.45
2018-09-26T14:02:47.129Z,34.57
2018-09-26T14:05:15.472Z,33.58
2018-09-26T14:07:44.089Z,33.07
2018-09-26T14:10:12.441Z,32.63
2018-09-26T14:12:41.130Z,31.19
2018-09-26T14:15:09.751Z,31.29
2018-09-26T14:17:38.431Z,30.93
2018-09-26T14:20:07.139Z,32.04
2018-09-26T14:22:35.615Z,32.95
2018-09-26T14:25:03.849Z,31.49
2018-09-26T14:27:32.893Z,32.25
2018-09-26T14:30:01.150Z,30.87
2018-09-26T14:32:29.491Z,28.68
2018-09-26T14:34:57.757Z,30.02
2018-09-26T14:37:26.529Z,31.47
2018-09-26T14:39:54.757Z,31.89
2018-09-26T14:42:23.032Z,30.11
2018-09-26T14:44:51.272Z,27.49
2018-09-26T14:47:19.823Z,26.94
2018-09-26T14:49:48.053Z,26.36
2018-09-26T14:52:19.683Z,26.22
2018-09-26T14:54:48.732Z,26.10
2018-09-26T14:57:17.029Z,25.53
2018-09-26T14:59:45.386Z,25.75
2018-09-26T15:02:13.695Z,25.83
2018-09-26T15:04:42.459Z,25.76
2018-09-26T15:07:11.013Z,25.79
2018-09-26T15:09:39.613Z,25.62
2018-09-26T15:12:08.950Z,25.37
2018-09-26T15:14:37.220Z,25.26
2018-09-26T15:17:05.572Z,25.41
2018-09-26T15:19:34.087Z,25.27
2018-09-26T15:22:02.870Z,24.54
2018-09-26T15:24:31.409Z,23.99
2018-09-26T15:26:59.684Z,24.06
2018-09-26T15:29:28.007Z,25.00
2018-09-26T15:31:56.691Z,25.36
2018-09-26T15:34:25.086Z,26.89
2018-09-26T15:36:53.960Z,27.50
2018-09-26T15:39:22.451Z,27.59
2018-09-26T15:41:51.216Z,28.37
2018-09-26T15:44:19.656Z,27.85
2018-09-26T15:46:47.890Z,28.09
2018-09-26T15:49:16.179Z,28.22
2018-09-26T15:51:45.519Z,28.45
2018-09-26T15:54:14.009Z,27.96
2018-09-26T15:56:42.307Z,28.99
2018-09-26T15:59:10.787Z,28.90
2018-09-26T16:01:39.594Z,28.53
2018-09-26T16:04:08.182Z,26.87
2018-09-26T16:06:36.419Z,25.82
2018-09-26T16:09:06.118Z,25.69
2018-09-26T16:11:34.635Z,24.93
2018-09-26T16:14:02.944Z,24.39
2018-09-26T16:16:32.078Z,23.78
2018-09-26T16:19:00.936Z,23.55
2018-09-26T16:21:29.312Z,22.65
2018-09-26T16:23:57.692Z,22.22
2018-09-26T16:26:26.540Z,22.20
2018-09-26T16:28:55.191Z,22.28
2018-09-26T16:31:23.533Z,21.92
2018-09-26T16:33:52.778Z,21.77
2018-09-26T16:36:21.552Z,21.25
2018-09-26T16:38:49.808Z,21.00
2018-09-26T16:41:18.591Z,21.01
2018-09-26T16:43:46.984Z,20.49
2018-09-26T16:46:15.363Z,20.11
2018-09-26T16:48:44.255Z,20.26
2018-09-26T16:51:12.697Z,19.90
2018-09-26T16:53:41.748Z,19.51
2018-09-26T16:56:10.264Z,19.26
2018-09-26T16:58:39.348Z,19.06
2018-09-26T17:01:07.676Z,18.92
2018-09-26T17:03:36.139Z,18.43
2018-09-26T17:06:04.756Z,18.22
2018-09-26T17:08:33.271Z,18.06
2018-09-26T17:11:01.591Z,17.99
2018-09-26T17:13:30.780Z,17.70
2018-09-26T17:18:39.842Z,17.49
2018-09-26T17:21:08.400Z,17.43
2018-09-26T17:23:36.718Z,17.30
2018-09-26T17:26:12.488Z,17.16
2018-09-26T17:28:40.865Z,16.84
2018-09-26T17:31:10.989Z,16.82
2018-09-26T17:33:39.705Z,16.80
2018-09-26T17:36:09.400Z,16.48
2018-09-26T17:38:37.960Z,16.48
2018-09-26T17:41:06.970Z,16.52
2018-09-26T17:43:35.298Z,16.49
2018-09-26T17:46:03.792Z,16.16
2018-09-26T17:48:33.042Z,15.98
2018-09-26T17:51:01.911Z,15.84
2018-09-26T17:53:30.285Z,15.93
2018-09-26T17:55:59.046Z,15.77
2018-09-26T17:58:28.024Z,15.74
2018-09-26T18:00:56.734Z,15.70
2018-09-26T18:03:25.536Z,15.59
2018-09-26T18:05:53.986Z,15.39
2018-09-26T18:08:22.752Z,15.38
2018-09-26T18:10:51.361Z,15.40
2018-09-26T18:13:20.116Z,15.35
2018-09-26T18:15:48.588Z,15.24
2018-09-26T18:18:17.064Z,15.15
2018-09-26T18:20:45.295Z,14.94
2018-09-26T18:23:13.554Z,14.88
2018-09-26T18:25:42.172Z,14.82
2018-09-26T18:28:10.434Z,14.76
2018-09-26T18:30:38.812Z,14.78
2018-09-26T18:33:07.164Z,14.63
2018-09-26T18:35:36.026Z,14.67
2018-09-26T18:38:04.855Z,14.61
2018-09-26T18:40:34.038Z,14.51
2018-09-26T18:43:02.478Z,14.37
2018-09-26T18:45:30.831Z,14.32
2018-09-26T18:47:59.215Z,14.18
2018-09-26T18:53:07.862Z,14.05
2018-09-26T18:55:37.457Z,13.96
2018-09-26T18:58:06.211Z,13.95
2018-09-26T19:00:34.723Z,13.89
2018-09-26T19:03:05.255Z,13.77
2018-09-26T19:05:34.108Z,13.66
2018-09-26T19:08:05.110Z,13.61
2018-09-26T19:10:35.287Z,13.52
2018-09-26T19:13:04.580Z,13.55
2018-09-26T19:15:35.006Z,13.53
2018-09-26T19:18:03.385Z,13.55
2018-09-26T19:20:33.532Z,13.62
2018-09-26T19:23:01.904Z,13.57
2018-09-26T19:25:31.146Z,13.61
2018-09-26T19:27:59.446Z,13.57
2018-09-26T19:30:27.796Z,13.50
2018-09-26T19:32:56.342Z,13.44
2018-09-26T19:35:27.153Z,13.43
2018-09-26T19:37:55.984Z,13.32
2018-09-26T19:40:24.601Z,13.25
2018-09-26T19:42:52.823Z,13.13
2018-09-26T19:45:21.737Z,12.96
2018-09-26T19:47:50.017Z,12.94
2018-09-26T19:50:18.892Z,13.01
2018-09-26T19:52:47.193Z,12.98
2018-09-26T19:55:15.765Z,12.92
2018-09-26T19:57:44.033Z,12.92
2018-09-26T20:00:12.244Z,12.81
2018-09-26T20:02:40.723Z,12.80
2018-09-26T20:08:20.548Z,12.80
2018-09-26T20:10:49.963Z,12.78
2018-09-26T20:13:18.212Z,12.69
2018-09-26T20:15:46.694Z,12.63
2018-09-26T20:18:14.998Z,12.60
2018-09-26T20:20:43.396Z,12.58
2018-09-26T20:23:12.040Z,12.52
2018-09-26T20:25:40.238Z,12.54
2018-09-26T20:28:09.031Z,12.49
2018-09-26T20:30:37.645Z,12.50
2018-09-26T20:33:06.503Z,12.49
2018-09-26T20:35:34.939Z,12.45
2018-09-26T20:38:03.331Z,12.36
2018-09-26T20:40:31.660Z,12.29
2018-09-26T20:42:59.866Z,12.25
2018-09-26T20:45:28.131Z,12.16
2018-09-26T20:47:57.365Z,12.14
2018-09-26T20:50:25.617Z,12.16
2018-09-26T20:52:53.881Z,12.17
2018-09-26T20:55:22.537Z,12.11
2018-09-26T20:57:51.072Z,12.07
2018-09-26T21:00:19.425Z,12.03
2018-09-26T21:02:47.922Z,11.95
2018-09-26T21:05:16.248Z,11.90
2018-09-26T21:07:44.802Z,11.87
2018-09-26T21:10:13.228Z,11.77
2018-09-26T21:12:41.693Z,11.77
2018-09-26T21:15:12.394Z,11.73
2018-09-26T21:17:41.217Z,11.57
2018-09-26T21:20:09.513Z,11.46
2018-09-26T21:22:37.991Z,11.42
2018-09-26T21:25:06.360Z,11.44
2018-09-26T21:27:34.956Z,11.51
2018-09-26T21:30:03.281Z,11.47
2018-09-26T21:32:31.517Z,11.42
2018-09-26T21:35:00.537Z,11.44
2018-09-26T21:37:28.765Z,11.34
2018-09-26T21:39:57.261Z,11.34
2018-09-26T21:42:25.716Z,11.40
2018-09-26T21:44:54.077Z,11.35
2018-09-26T21:47:22.860Z,11.22
2018-09-26T21:49:51.384Z,11.16
2018-09-26T21:52:19.719Z,11.10
2018-09-26T21:54:48.549Z,11.08
2018-09-26T21:57:17.125Z,11.18
2018-09-26T21:59:45.470Z,11.16
2018-09-26T22:02:13.781Z,11.05
2018-09-26T22:04:42.233Z,11.03
2018-09-26T22:07:10.815Z,11.03
2018-09-26T22:09:39.170Z,11.08
2018-09-26T22:12:10.345Z,11.01
2018-09-26T22:14:38.802Z,10.95
2018-09-26T22:17:07.179Z,10.93
2018-09-26T22:19:35.422Z,10.84
2018-09-26T22:22:03.828Z,10.77
2018-09-26T22:24:32.075Z,10.77
2018-09-26T22:27:00.305Z,10.74
2018-09-26T22:29:28.665Z,10.67
2018-09-26T22:31:58.068Z,10.63
2018-09-26T22:34:26.747Z,10.56
2018-09-26T22:36:55.718Z,10.55
2018-09-26T22:39:24.248Z,10.47
2018-09-26T22:41:52.558Z,10.41
2018-09-26T22:44:20.814Z,10.34
2018-09-26T22:46:49.696Z,10.30
2018-09-26T22:49:18.021Z,10.26
2018-09-26T22:51:46.499Z,10.29
2018-09-26T22:54:15.054Z,10.27
2018-09-26T22:56:43.298Z,10.25
2018-09-26T22:59:11.907Z,10.27
2018-09-26T23:01:40.425Z,10.21
2018-09-26T23:04:09.433Z,10.21
2018-09-26T23:06:38.381Z,10.14
2018-09-26T23:09:09.668Z,10.10
2018-09-26T23:11:38.553Z,10.03
2018-09-26T23:14:07.017Z,9.98
2018-09-26T23:16:35.308Z,9.99
2018-09-26T23:19:04.130Z,9.97
2018-09-26T23:21:32.919Z,10.04
2018-09-26T23:24:01.415Z,10.00
2018-09-26T23:26:30.287Z,10.08
2018-09-26T23:28:58.450Z,10.18
2018-09-26T23:31:26.989Z,10.17
2018-09-26T23:33:55.532Z,10.15
2018-09-26T23:36:23.920Z,10.10
2018-09-26T23:38:52.188Z,10.03
2018-09-26T23:41:20.904Z,10.00
2018-09-26T23:43:49.068Z,9.97
2018-09-26T23:46:17.315Z,10.00
2018-09-26T23:48:45.636Z,10.07
2018-09-26T23:51:14.249Z,10.00
2018-09-26T23:53:42.648Z,9.99
2018-09-26T23:56:11.008Z,10.06
2018-09-26T23:58:39.277Z,10.10
